Hersey, Wisconsin
Current Conditions -  °F | °C
As of 3:35 PM on Friday 19 Dec 2014 (Local Time) from KLUM Reporting Station
Overcast Overcast  
Wind Chill: 22°   Ceiling: 3000
Heat Index: 28°   Visibility: 10mi
Dew Point: 20°   Wind: 6mph
Humidity: 72%   Direction: 150°SSE
Pressure: 30.23"   Gusts: NA
Location:  44.9123°N, 92.1905°W
Report Text: KLUM 192135Z AUTO 15005KT 10SM SCT020 OVC030 M02/M06 A3023 RMK AO2 T10211065
Loading
Personal Weather Stations






























Interactive Weather Map New forecast layout! Learn more

10-Day Weather Forecast

Advertisements
Track Severe Weather on mobile